createdAt,value
2022-09-14T00:01:47.648Z,20.80
2022-09-14T00:04:15.558Z,20.60
2022-09-14T00:06:42.214Z,20.50
2022-09-14T00:09:12.078Z,20.40
2022-09-14T00:11:38.918Z,20.30
2022-09-14T00:14:06.454Z,20.20
2022-09-14T00:16:34.430Z,20.00
2022-09-14T00:19:05.894Z,19.90
2022-09-14T00:21:36.610Z,19.90
2022-09-14T00:24:04.010Z,19.90
2022-09-14T00:26:30.703Z,19.80
2022-09-14T00:28:58.655Z,19.80
2022-09-14T00:31:26.107Z,19.70
2022-09-14T00:33:53.126Z,19.70
2022-09-14T00:36:24.524Z,19.60
2022-09-14T00:38:51.640Z,19.70
2022-09-14T00:41:20.694Z,19.60
2022-09-14T00:44:01.734Z,19.50
2022-09-14T00:46:31.954Z,19.50
2022-09-14T00:48:59.697Z,19.40
2022-09-14T00:51:27.316Z,19.30
2022-09-14T00:53:53.909Z,19.30
2022-09-14T00:56:20.530Z,19.20
2022-09-14T00:58:49.589Z,19.30
2022-09-14T01:01:16.369Z,19.20
2022-09-14T01:03:43.223Z,19.20
2022-09-14T01:06:09.966Z,19.20
2022-09-14T01:08:51.802Z,19.30
2022-09-14T01:11:39.785Z,19.30
2022-09-14T01:14:13.044Z,19.30
2022-09-14T01:16:53.798Z,19.20
2022-09-14T01:19:33.565Z,19.10
2022-09-14T01:22:06.586Z,19.20
2022-09-14T01:24:33.255Z,19.20
2022-09-14T01:27:10.573Z,19.20
2022-09-14T01:29:56.274Z,19.20
2022-09-14T01:32:27.420Z,19.20
2022-09-14T01:34:57.556Z,19.20
2022-09-14T01:37:31.495Z,19.10
2022-09-14T01:40:00.936Z,19.10
2022-09-14T01:42:28.934Z,19.20
2022-09-14T01:44:57.588Z,19.20
2022-09-14T01:47:32.994Z,19.10
2022-09-14T01:50:06.879Z,19.10
2022-09-14T01:52:42.160Z,19.10
2022-09-14T01:55:44.211Z,19.10
2022-09-14T01:58:13.823Z,19.10
2022-09-14T02:00:43.288Z,19.10
2022-09-14T02:03:12.870Z,19.20
2022-09-14T02:05:48.753Z,19.20
2022-09-14T02:08:15.494Z,19.30
2022-09-14T02:10:42.193Z,19.30
2022-09-14T02:13:09.373Z,19.20
2022-09-14T02:15:36.488Z,19.30
2022-09-14T02:18:03.440Z,19.30
2022-09-14T02:20:35.519Z,19.30
2022-09-14T02:23:02.640Z,19.30
2022-09-14T02:25:29.591Z,19.30
2022-09-14T02:27:56.362Z,19.30
2022-09-14T02:30:23.227Z,19.30
2022-09-14T02:32:55.203Z,19.30
2022-09-14T02:35:38.030Z,19.30
2022-09-14T02:38:10.864Z,19.30
2022-09-14T02:40:53.086Z,19.30
2022-09-14T02:43:38.651Z,19.30
2022-09-14T02:46:26.702Z,19.20
2022-09-14T02:49:04.247Z,19.20
2022-09-14T02:51:33.492Z,19.20
2022-09-14T02:54:20.310Z,19.20
2022-09-14T02:56:47.163Z,19.20
2022-09-14T02:59:13.697Z,19.20
2022-09-14T03:01:40.374Z,19.20
2022-09-14T03:04:06.871Z,19.20
2022-09-14T03:06:33.876Z,19.30
2022-09-14T03:09:00.431Z,19.20
2022-09-14T03:11:26.995Z,19.20
2022-09-14T03:13:53.551Z,19.20
2022-09-14T03:16:20.422Z,19.20
2022-09-14T03:18:47.022Z,19.20
2022-09-14T03:21:15.159Z,19.20
2022-09-14T03:23:42.944Z,19.10
2022-09-14T03:26:10.631Z,19.10
2022-09-14T03:28:37.551Z,19.10
2022-09-14T03:31:05.506Z,19.10
2022-09-14T03:33:32.472Z,19.10
2022-09-14T03:35:59.427Z,19.00
2022-09-14T03:38:30.007Z,19.00
2022-09-14T03:40:58.026Z,19.00
2022-09-14T03:43:24.589Z,19.10
2022-09-14T03:45:51.128Z,19.10
2022-09-14T03:48:17.947Z,19.10
2022-09-14T03:50:44.487Z,19.10
2022-09-14T03:53:11.198Z,19.20
2022-09-14T03:55:39.669Z,19.10
2022-09-14T03:58:06.236Z,19.10
2022-09-14T04:00:32.814Z,19.10
2022-09-14T04:03:00.017Z,19.10
2022-09-14T04:05:26.655Z,19.00
2022-09-14T04:07:53.187Z,19.00
2022-09-14T04:10:19.775Z,19.00
2022-09-14T04:12:46.355Z,19.00
2022-09-14T04:15:12.911Z,19.00
2022-09-14T04:17:40.591Z,18.90
2022-09-14T04:20:07.485Z,18.90
2022-09-14T04:22:34.254Z,19.00
2022-09-14T04:25:00.839Z,19.00
2022-09-14T04:27:27.552Z,19.00
2022-09-14T04:29:54.117Z,19.00
2022-09-14T04:32:20.685Z,19.00
2022-09-14T04:34:48.609Z,19.00
2022-09-14T04:37:15.162Z,19.00
2022-09-14T04:39:42.596Z,19.00
2022-09-14T04:42:09.247Z,19.00
2022-09-14T04:44:35.812Z,19.00
2022-09-14T04:47:02.442Z,18.90
2022-09-14T04:49:29.216Z,18.90
2022-09-14T04:51:55.775Z,18.90
2022-09-14T04:54:22.411Z,18.90
2022-09-14T04:56:49.058Z,18.90
2022-09-14T04:59:15.947Z,19.00
2022-09-14T05:01:45.537Z,19.00
2022-09-14T05:04:12.246Z,19.00
2022-09-14T05:06:40.760Z,19.00
2022-09-14T05:09:09.910Z,19.00
2022-09-14T05:11:37.625Z,19.00
2022-09-14T05:14:04.320Z,19.00
2022-09-14T05:16:32.063Z,19.00
2022-09-14T05:19:01.403Z,19.10
2022-09-14T05:21:28.731Z,19.10
2022-09-14T05:23:56.268Z,19.00
2022-09-14T05:26:23.528Z,19.00
2022-09-14T05:28:51.890Z,18.90
2022-09-14T05:31:18.887Z,18.90
2022-09-14T05:33:45.494Z,18.90
2022-09-14T05:36:12.146Z,18.90
2022-09-14T05:38:39.838Z,18.90
2022-09-14T05:41:07.459Z,19.00
2022-09-14T05:43:34.204Z,18.90
2022-09-14T05:46:01.946Z,18.80
2022-09-14T05:48:32.819Z,18.90
2022-09-14T05:51:03.843Z,18.90
2022-09-14T05:53:30.821Z,19.00
2022-09-14T05:56:04.274Z,19.10
2022-09-14T05:58:31.381Z,19.20
2022-09-14T06:00:58.011Z,19.20
2022-09-14T06:03:24.934Z,19.30
2022-09-14T06:05:54.737Z,19.30
2022-09-14T06:08:21.574Z,19.20
2022-09-14T06:10:48.495Z,19.20
2022-09-14T06:13:15.123Z,19.20
2022-09-14T06:15:41.746Z,19.20
2022-09-14T06:18:08.360Z,19.20
2022-09-14T06:20:34.987Z,19.20
2022-09-14T06:23:01.573Z,19.30
2022-09-14T06:25:28.198Z,19.30
2022-09-14T06:27:55.158Z,19.30
2022-09-14T06:30:21.868Z,19.30
2022-09-14T06:32:48.723Z,19.30
2022-09-14T06:35:15.408Z,19.20
2022-09-14T06:37:42.104Z,19.20
2022-09-14T06:40:09.205Z,19.20
2022-09-14T06:42:35.836Z,19.20
2022-09-14T06:45:02.456Z,19.20
2022-09-14T06:47:33.137Z,19.30
2022-09-14T06:49:59.694Z,19.30
2022-09-14T06:52:29.447Z,19.30
2022-09-14T06:54:58.423Z,19.30
2022-09-14T06:57:24.991Z,19.40
2022-09-14T06:59:51.526Z,19.40
2022-09-14T07:02:18.109Z,19.40
2022-09-14T07:04:44.736Z,19.50
2022-09-14T07:07:11.387Z,19.40
2022-09-14T07:09:37.892Z,19.50
2022-09-14T07:12:04.559Z,19.60
2022-09-14T07:14:32.447Z,19.60
2022-09-14T07:16:59.148Z,19.50
2022-09-14T07:19:25.899Z,19.50
2022-09-14T07:21:54.660Z,19.50
2022-09-14T07:24:21.697Z,19.50
2022-09-14T07:26:48.540Z,19.50
2022-09-14T07:29:17.000Z,19.60
2022-09-14T07:31:48.200Z,19.70
2022-09-14T07:34:15.391Z,19.70
2022-09-14T07:36:42.314Z,19.80
2022-09-14T07:39:11.395Z,19.70
2022-09-14T07:41:38.262Z,19.90
2022-09-14T07:44:06.172Z,19.90
2022-09-14T07:46:38.106Z,20.40
2022-09-14T07:49:05.314Z,20.80
2022-09-14T07:51:32.819Z,21.00
2022-09-14T07:54:01.655Z,20.90
2022-09-14T07:56:28.938Z,20.80
2022-09-14T07:59:11.550Z,20.80
2022-09-14T08:01:43.637Z,20.90
2022-09-14T08:04:10.382Z,21.10
2022-09-14T08:06:37.743Z,21.20
2022-09-14T08:09:08.563Z,21.40
2022-09-14T08:11:35.676Z,21.40
2022-09-14T08:14:04.610Z,21.30
2022-09-14T08:16:32.419Z,21.40
2022-09-14T08:19:00.419Z,21.40
2022-09-14T08:21:27.725Z,21.50
2022-09-14T08:23:54.828Z,21.50
2022-09-14T08:26:22.642Z,21.30
2022-09-14T08:28:50.486Z,21.40
2022-09-14T08:31:21.454Z,21.40
2022-09-14T08:33:50.734Z,21.30
2022-09-14T08:36:18.893Z,21.30
2022-09-14T08:38:45.457Z,21.20
2022-09-14T08:41:32.560Z,21.10
2022-09-14T08:44:00.219Z,21.20
2022-09-14T08:46:29.868Z,21.30
2022-09-14T08:48:57.130Z,21.40
2022-09-14T08:51:23.876Z,21.60
2022-09-14T08:53:52.265Z,21.90
2022-09-14T08:56:21.626Z,22.10
2022-09-14T08:58:48.716Z,22.10
2022-09-14T09:01:40.437Z,22.30
2022-09-14T09:04:25.695Z,22.50
2022-09-14T09:06:55.411Z,22.40
2022-09-14T09:09:24.974Z,22.70
2022-09-14T09:11:53.094Z,24.10
2022-09-14T09:14:26.747Z,26.40
2022-09-14T09:16:54.946Z,28.10
2022-09-14T09:19:28.478Z,28.70
2022-09-14T09:21:55.611Z,29.70
2022-09-14T09:24:36.924Z,30.80
2022-09-14T09:27:14.245Z,31.70
2022-09-14T09:29:41.238Z,33.10
2022-09-14T09:32:10.823Z,34.10
2022-09-14T09:34:37.369Z,34.90
2022-09-14T09:37:04.494Z,34.50
2022-09-14T09:39:31.755Z,33.30
2022-09-14T09:42:21.695Z,31.90
2022-09-14T09:45:03.577Z,31.70
2022-09-14T09:47:30.848Z,33.80
2022-09-14T09:50:01.705Z,34.00
2022-09-14T09:52:29.486Z,33.00
2022-09-14T09:54:56.701Z,32.10
2022-09-14T09:57:28.503Z,32.30
2022-09-14T10:00:21.384Z,32.50
2022-09-14T10:02:48.315Z,33.40
2022-09-14T10:05:19.887Z,32.70
2022-09-14T10:07:49.469Z,32.10
2022-09-14T10:10:17.433Z,31.30
2022-09-14T10:13:04.062Z,30.30
2022-09-14T10:15:32.720Z,29.50
2022-09-14T10:18:15.592Z,28.80
2022-09-14T10:20:43.966Z,29.00
2022-09-14T10:23:30.906Z,29.30
2022-09-14T10:26:17.518Z,30.10
2022-09-14T10:28:45.338Z,30.20
2022-09-14T10:31:14.860Z,30.30
2022-09-14T10:33:42.900Z,30.80
2022-09-14T10:36:12.612Z,32.00
2022-09-14T10:38:42.590Z,32.30
2022-09-14T10:41:26.032Z,32.20
2022-09-14T10:44:10.527Z,31.70
2022-09-14T10:46:43.166Z,31.00
2022-09-14T10:49:17.538Z,30.40
2022-09-14T10:51:52.745Z,30.40
2022-09-14T10:54:38.158Z,31.10
2022-09-14T10:57:18.859Z,30.90
2022-09-14T10:59:53.011Z,30.80
2022-09-14T11:02:35.361Z,31.70
2022-09-14T11:05:04.872Z,32.50
2022-09-14T11:07:38.802Z,33.30
2022-09-14T11:10:13.585Z,33.50
2022-09-14T11:12:52.173Z,33.60
2022-09-14T11:15:24.946Z,33.00
2022-09-14T11:17:57.736Z,32.10
2022-09-14T11:20:34.151Z,31.40
2022-09-14T11:23:06.987Z,30.50
2022-09-14T11:25:40.003Z,29.70
2022-09-14T11:28:16.579Z,28.90
2022-09-14T11:30:46.900Z,28.40
2022-09-14T11:33:16.695Z,28.10
2022-09-14T11:35:48.269Z,27.80
2022-09-14T11:38:14.853Z,27.50
2022-09-14T11:40:51.819Z,27.30
2022-09-14T11:43:21.386Z,27.30
2022-09-14T11:45:55.962Z,27.10
2022-09-14T11:48:42.846Z,26.80
2022-09-14T11:51:13.607Z,26.60
2022-09-14T11:53:41.888Z,26.40
2022-09-14T11:56:19.175Z,26.30
2022-09-14T11:58:46.542Z,26.10
2022-09-14T12:01:36.824Z,25.90
2022-09-14T12:04:06.768Z,25.70
2022-09-14T12:06:36.553Z,25.50
2022-09-14T12:09:16.994Z,25.40
2022-09-14T12:11:44.119Z,25.30
2022-09-14T12:14:30.112Z,25.20
2022-09-14T12:17:37.804Z,25.10
2022-09-14T12:20:20.463Z,25.00
2022-09-14T12:22:50.317Z,24.80
2022-09-14T12:25:17.980Z,24.80
2022-09-14T12:27:46.694Z,24.60
2022-09-14T12:30:38.310Z,24.50
2022-09-14T12:33:26.123Z,24.50
2022-09-14T12:35:52.686Z,24.40
2022-09-14T12:38:31.451Z,24.30
2022-09-14T12:41:02.210Z,24.20
2022-09-14T12:43:38.160Z,24.20
2022-09-14T12:46:08.003Z,24.10
2022-09-14T12:48:55.525Z,24.20
2022-09-14T12:51:28.880Z,24.20
2022-09-14T12:53:58.735Z,24.10
2022-09-14T12:56:32.288Z,24.10
2022-09-14T12:59:07.392Z,24.10
2022-09-14T13:02:10.213Z,24.00
2022-09-14T13:04:38.167Z,24.10
2022-09-14T13:07:06.236Z,24.00
2022-09-14T13:09:33.241Z,24.00
2022-09-14T13:12:07.343Z,24.00
2022-09-14T13:14:46.993Z,24.00
2022-09-14T13:17:14.319Z,23.90
2022-09-14T13:19:41.130Z,23.90
2022-09-14T13:22:18.969Z,23.90
2022-09-14T13:24:46.734Z,24.00
2022-09-14T13:27:22.290Z,23.90
2022-09-14T13:29:56.401Z,23.90
2022-09-14T13:32:28.027Z,23.80
2022-09-14T13:34:55.119Z,23.80
2022-09-14T13:37:21.908Z,23.80
2022-09-14T13:39:51.029Z,23.70
2022-09-14T13:42:17.771Z,23.60
2022-09-14T13:44:45.808Z,23.50
2022-09-14T13:47:14.732Z,23.50
2022-09-14T13:49:42.729Z,23.40
2022-09-14T13:52:19.650Z,23.40
2022-09-14T13:54:46.990Z,23.40
2022-09-14T13:57:18.333Z,23.30
2022-09-14T14:00:03.809Z,23.20
2022-09-14T14:02:32.518Z,23.10
2022-09-14T14:04:59.118Z,22.90
2022-09-14T14:07:32.843Z,22.80
2022-09-14T14:10:00.355Z,22.70
2022-09-14T14:12:28.498Z,22.60
2022-09-14T14:14:55.109Z,22.40
2022-09-14T14:17:32.774Z,22.40
2022-09-14T14:20:00.761Z,22.30
2022-09-14T14:22:27.346Z,22.30
2022-09-14T14:27:43.330Z,22.10
2022-09-14T14:30:13.613Z,22.20
2022-09-14T14:32:40.303Z,22.10
2022-09-14T14:35:17.582Z,22.00
2022-09-14T14:37:44.201Z,22.10
2022-09-14T14:40:18.907Z,22.10
2022-09-14T14:42:46.020Z,22.10
2022-09-14T14:45:14.448Z,22.10
2022-09-14T14:47:41.352Z,22.10
2022-09-14T14:50:22.376Z,22.00
2022-09-14T14:52:49.264Z,22.00
2022-09-14T14:55:18.285Z,22.00
2022-09-14T14:57:45.020Z,22.10
2022-09-14T15:00:13.203Z,22.10
2022-09-14T15:02:39.756Z,22.10
2022-09-14T15:05:06.592Z,22.00
2022-09-14T15:07:37.138Z,22.00
2022-09-14T15:10:05.127Z,21.80
2022-09-14T15:12:31.986Z,21.80
2022-09-14T15:14:59.202Z,21.70
2022-09-14T15:17:25.779Z,21.70
2022-09-14T15:19:52.635Z,21.70
2022-09-14T15:22:19.503Z,21.80
2022-09-14T15:24:46.087Z,21.90
2022-09-14T15:27:12.696Z,22.00
2022-09-14T15:29:39.437Z,22.00
2022-09-14T15:32:06.078Z,22.20
2022-09-14T15:34:32.761Z,22.20
2022-09-14T15:36:59.486Z,22.20
2022-09-14T15:39:27.436Z,22.30
2022-09-14T15:41:54.495Z,22.30
2022-09-14T15:44:21.356Z,22.10
2022-09-14T15:46:48.237Z,22.20
2022-09-14T15:49:19.887Z,22.20
2022-09-14T15:51:48.053Z,22.30
2022-09-14T15:54:14.709Z,22.20
2022-09-14T15:56:41.766Z,22.20
2022-09-14T15:59:09.120Z,22.30
2022-09-14T16:01:36.237Z,22.40
2022-09-14T16:04:05.756Z,22.30
2022-09-14T16:06:35.139Z,22.40
2022-09-14T16:09:02.663Z,22.50
2022-09-14T16:11:29.203Z,22.60
2022-09-14T16:13:56.367Z,22.70
2022-09-14T16:16:23.179Z,22.70
2022-09-14T16:18:50.167Z,22.70
2022-09-14T16:21:21.623Z,22.80
2022-09-14T16:23:50.656Z,22.80
2022-09-14T16:26:19.459Z,22.90
2022-09-14T16:28:46.876Z,22.90
2022-09-14T16:31:24.239Z,22.90
2022-09-14T16:33:52.093Z,22.80
2022-09-14T16:36:24.391Z,22.80
2022-09-14T16:38:51.017Z,22.80
2022-09-14T16:41:17.903Z,22.80
2022-09-14T16:43:44.863Z,22.60
2022-09-14T16:46:13.820Z,22.60
2022-09-14T16:48:41.462Z,22.50
2022-09-14T16:51:08.468Z,22.20
2022-09-14T16:53:35.842Z,22.20
2022-09-14T16:56:03.641Z,22.20
2022-09-14T16:58:30.204Z,22.10
2022-09-14T17:00:57.262Z,22.20
2022-09-14T17:03:29.783Z,22.10
2022-09-14T17:06:05.211Z,22.10
2022-09-14T17:08:32.582Z,22.10
2022-09-14T17:10:59.888Z,22.10
2022-09-14T17:13:27.000Z,22.20
2022-09-14T17:15:59.935Z,22.10
2022-09-14T17:18:26.564Z,22.00
2022-09-14T17:20:54.337Z,22.10
2022-09-14T17:23:21.088Z,22.10
2022-09-14T17:25:47.803Z,22.10
2022-09-14T17:28:14.366Z,22.10
2022-09-14T17:30:41.823Z,22.10
2022-09-14T17:33:08.408Z,22.10
2022-09-14T17:35:35.209Z,22.20
2022-09-14T17:38:01.756Z,22.30
2022-09-14T17:40:31.601Z,22.30
2022-09-14T17:42:58.339Z,22.40
2022-09-14T17:45:24.900Z,22.50
2022-09-14T17:47:51.517Z,22.40
2022-09-14T17:50:19.338Z,22.30
2022-09-14T17:52:45.952Z,22.30
2022-09-14T17:55:12.726Z,22.20
2022-09-14T17:57:39.432Z,22.10
2022-09-14T18:00:06.455Z,22.20
2022-09-14T18:02:32.996Z,22.10
2022-09-14T18:05:00.551Z,22.10
2022-09-14T18:07:27.863Z,22.00
2022-09-14T18:09:54.383Z,22.00
2022-09-14T18:12:21.059Z,22.00
2022-09-14T18:14:47.871Z,22.00
2022-09-14T18:17:14.531Z,22.00
2022-09-14T18:19:41.096Z,22.00
2022-09-14T18:22:08.546Z,22.00
2022-09-14T18:24:35.195Z,22.00
2022-09-14T18:27:01.893Z,22.00
2022-09-14T18:29:29.862Z,21.90
2022-09-14T18:31:56.433Z,21.90
2022-09-14T18:34:25.246Z,21.80
2022-09-14T18:36:52.070Z,21.80
2022-09-14T18:39:19.194Z,21.80
2022-09-14T18:41:45.745Z,21.80
2022-09-14T18:44:12.866Z,21.90
2022-09-14T18:46:39.795Z,21.80
2022-09-14T18:49:06.399Z,21.80
2022-09-14T18:51:35.376Z,21.80
2022-09-14T18:54:04.075Z,21.70
2022-09-14T18:56:33.223Z,21.70
2022-09-14T18:59:00.480Z,21.50
2022-09-14T19:01:27.972Z,21.50
2022-09-14T19:03:56.186Z,21.40
2022-09-14T19:06:25.752Z,21.40
2022-09-14T19:08:52.621Z,21.40
2022-09-14T19:11:21.449Z,21.30
2022-09-14T19:13:48.674Z,21.20
2022-09-14T19:16:17.080Z,21.10
2022-09-14T19:18:44.247Z,20.90
2022-09-14T19:21:12.211Z,20.90
2022-09-14T19:23:38.880Z,20.80
2022-09-14T19:26:10.519Z,20.80
2022-09-14T19:28:37.535Z,20.80
2022-09-14T19:31:05.280Z,20.80
2022-09-14T19:33:32.240Z,20.90
2022-09-14T19:36:10.982Z,20.90
2022-09-14T19:38:37.748Z,20.90
2022-09-14T19:41:05.258Z,20.80
2022-09-14T19:43:32.455Z,20.80
2022-09-14T19:46:03.370Z,20.80
2022-09-14T19:48:30.351Z,20.80
2022-09-14T19:50:57.911Z,20.80
2022-09-14T19:53:24.558Z,20.90
2022-09-14T19:55:51.121Z,20.80
2022-09-14T19:58:17.667Z,20.80
2022-09-14T20:00:44.537Z,20.70
2022-09-14T20:03:11.200Z,20.50
2022-09-14T20:05:37.912Z,20.30
2022-09-14T20:08:04.480Z,20.20
2022-09-14T20:10:31.210Z,20.10
2022-09-14T20:12:57.754Z,20.10
2022-09-14T20:15:24.333Z,20.10
2022-09-14T20:17:53.432Z,20.10
2022-09-14T20:20:19.984Z,20.30
2022-09-14T20:22:46.508Z,20.50
2022-09-14T20:25:13.771Z,20.40
2022-09-14T20:27:40.342Z,20.60
2022-09-14T20:30:08.799Z,20.60
2022-09-14T20:32:35.367Z,20.30
2022-09-14T20:35:02.049Z,20.30
2022-09-14T20:37:28.701Z,20.30
2022-09-14T20:39:55.288Z,20.10
2022-09-14T20:42:21.923Z,20.00
2022-09-14T20:44:48.455Z,19.90
2022-09-14T20:47:14.980Z,19.90
2022-09-14T20:49:41.514Z,19.90
2022-09-14T20:52:08.264Z,19.90
2022-09-14T20:54:34.855Z,19.90
2022-09-14T20:57:04.505Z,19.90
2022-09-14T20:59:31.303Z,19.90
2022-09-14T21:01:59.536Z,19.80
2022-09-14T21:04:28.988Z,19.80
2022-09-14T21:06:56.026Z,19.80
2022-09-14T21:09:24.655Z,19.80
2022-09-14T21:11:52.387Z,20.00
2022-09-14T21:14:19.738Z,20.10
2022-09-14T21:16:47.351Z,20.20
2022-09-14T21:19:15.474Z,20.20
2022-09-14T21:21:42.542Z,20.40
2022-09-14T21:24:10.697Z,20.60
2022-09-14T21:26:41.899Z,20.70
2022-09-14T21:29:11.299Z,20.70
2022-09-14T21:31:38.037Z,20.70
2022-09-14T21:34:05.664Z,20.70
2022-09-14T21:36:38.584Z,20.80
2022-09-14T21:39:08.630Z,20.80
2022-09-14T21:41:35.655Z,20.70
2022-09-14T21:44:02.439Z,20.70
2022-09-14T21:46:29.227Z,20.80
2022-09-14T21:48:56.429Z,20.80
2022-09-14T21:51:27.119Z,20.70
2022-09-14T21:53:54.706Z,20.70
2022-09-14T21:56:22.135Z,20.60
2022-09-14T21:58:52.896Z,20.50
2022-09-14T22:01:21.475Z,20.50
2022-09-14T22:03:51.401Z,20.50
2022-09-14T22:06:25.279Z,20.50
2022-09-14T22:08:52.392Z,20.40
2022-09-14T22:11:24.323Z,20.30
2022-09-14T22:13:54.878Z,20.40
2022-09-14T22:16:21.909Z,20.30
2022-09-14T22:18:49.833Z,20.20
2022-09-14T22:21:17.320Z,20.20
2022-09-14T22:23:43.911Z,20.20
2022-09-14T22:26:11.856Z,20.20
2022-09-14T22:28:41.970Z,20.10
2022-09-14T22:31:09.014Z,20.20
2022-09-14T22:33:35.957Z,20.20
2022-09-14T22:36:03.747Z,20.10
2022-09-14T22:38:31.701Z,20.10
2022-09-14T22:41:03.112Z,20.10
2022-09-14T22:43:30.512Z,20.20
2022-09-14T22:45:57.401Z,20.20
2022-09-14T22:48:24.202Z,20.10
2022-09-14T22:50:51.754Z,20.10
2022-09-14T22:53:18.958Z,20.10
2022-09-14T22:55:46.177Z,20.10
2022-09-14T22:58:14.120Z,20.00
2022-09-14T23:00:41.405Z,20.00
2022-09-14T23:03:08.465Z,19.90
2022-09-14T23:05:35.799Z,19.80
2022-09-14T23:08:02.774Z,19.80
2022-09-14T23:10:29.307Z,19.80
2022-09-14T23:12:55.847Z,19.80
2022-09-14T23:15:22.388Z,19.80
2022-09-14T23:17:52.099Z,19.70
2022-09-14T23:20:18.881Z,19.70
2022-09-14T23:22:45.453Z,19.60
2022-09-14T23:25:12.011Z,19.60
2022-09-14T23:27:38.537Z,19.50
2022-09-14T23:30:05.632Z,19.50
2022-09-14T23:32:32.291Z,19.60
2022-09-14T23:34:58.865Z,19.60
2022-09-14T23:37:25.432Z,19.60
2022-09-14T23:39:52.221Z,19.70
2022-09-14T23:42:18.817Z,19.60
2022-09-14T23:44:45.339Z,19.60
2022-09-14T23:47:12.038Z,19.50
2022-09-14T23:49:38.586Z,19.50
2022-09-14T23:52:05.143Z,19.50
2022-09-14T23:54:32.186Z,19.50
2022-09-14T23:56:58.890Z,19.50
2022-09-14T23:59:25.483Z,19.50
